sensor_id;sensor_type;location;lat;lon;timestamp;pressure;altitude;pressure_sealevel;temperature;humidity
22572;BME280;11452;53.368;14.658;2024-01-16T00:04:27;99421.94;;;-0.38;68.63
22572;BME280;11452;53.368;14.658;2024-01-16T00:09:34;99432.11;;;-0.28;69.06
22572;BME280;11452;53.368;14.658;2024-01-16T00:14:40;99442.20;;;-0.29;69.18
22572;BME280;11452;53.368;14.658;2024-01-16T00:19:46;99448.72;;;-0.28;69.21
22572;BME280;11452;53.368;14.658;2024-01-16T00:24:52;99447.31;;;-0.25;69.47
22572;BME280;11452;53.368;14.658;2024-01-16T00:29:57;99453.52;;;-0.27;69.59
22572;BME280;11452;53.368;14.658;2024-01-16T00:35:04;99458.22;;;-0.24;69.82
22572;BME280;11452;53.368;14.658;2024-01-16T00:40:10;99466.05;;;-0.22;69.81
22572;BME280;11452;53.368;14.658;2024-01-16T00:45:16;99471.39;;;-0.25;69.96
22572;BME280;11452;53.368;14.658;2024-01-16T00:50:22;99465.19;;;-0.23;70.05
22572;BME280;11452;53.368;14.658;2024-01-16T00:55:29;99470.22;;;-0.30;70.08
22572;BME280;11452;53.368;14.658;2024-01-16T01:00:35;99484.06;;;-0.38;70.32
22572;BME280;11452;53.368;14.658;2024-01-16T01:05:41;99493.38;;;-0.29;70.51
22572;BME280;11452;53.368;14.658;2024-01-16T01:10:47;99495.20;;;-0.18;70.57
22572;BME280;11452;53.368;14.658;2024-01-16T01:15:53;99495.59;;;-0.17;70.61
22572;BME280;11452;53.368;14.658;2024-01-16T01:20:59;99498.75;;;-0.06;70.69
22572;BME280;11452;53.368;14.658;2024-01-16T01:26:04;99502.64;;;-0.05;70.69
22572;BME280;11452;53.368;14.658;2024-01-16T01:31:13;99510.88;;;-0.02;70.75
22572;BME280;11452;53.368;14.658;2024-01-16T01:36:19;99517.77;;;0.00;70.86
22572;BME280;11452;53.368;14.658;2024-01-16T01:41:25;99521.91;;;0.08;70.80
22572;BME280;11452;53.368;14.658;2024-01-16T01:46:32;99524.28;;;0.02;70.62
22572;BME280;11452;53.368;14.658;2024-01-16T01:51:39;99526.81;;;-0.08;70.47
22572;BME280;11452;53.368;14.658;2024-01-16T01:56:46;99529.80;;;-0.19;70.63
22572;BME280;11452;53.368;14.658;2024-01-16T02:01:53;99530.63;;;-0.31;70.61
22572;BME280;11452;53.368;14.658;2024-01-16T02:07:00;99527.36;;;-0.53;70.67
22572;BME280;11452;53.368;14.658;2024-01-16T02:12:07;99525.59;;;-0.80;70.72
22572;BME280;11452;53.368;14.658;2024-01-16T02:17:13;99541.21;;;-0.92;70.79
22572;BME280;11452;53.368;14.658;2024-01-16T02:22:20;99542.42;;;-1.18;70.81
22572;BME280;11452;53.368;14.658;2024-01-16T02:27:27;99558.70;;;-1.38;70.94
22572;BME280;11452;53.368;14.658;2024-01-16T02:32:33;99569.09;;;-1.51;71.25
22572;BME280;11452;53.368;14.658;2024-01-16T02:37:39;99582.09;;;-1.48;71.44
22572;BME280;11452;53.368;14.658;2024-01-16T02:42:45;99603.30;;;-1.41;71.70
22572;BME280;11452;53.368;14.658;2024-01-16T02:47:51;99605.66;;;-1.30;71.88
22572;BME280;11452;53.368;14.658;2024-01-16T02:52:57;99614.13;;;-1.21;72.25
22572;BME280;11452;53.368;14.658;2024-01-16T02:58:03;99622.88;;;-1.22;72.43
22572;BME280;11452;53.368;14.658;2024-01-16T03:03:10;99628.42;;;-1.16;72.65
22572;BME280;11452;53.368;14.658;2024-01-16T03:08:16;99636.69;;;-0.99;72.71
22572;BME280;11452;53.368;14.658;2024-01-16T03:13:22;99640.35;;;-0.90;72.74
22572;BME280;11452;53.368;14.658;2024-01-16T03:18:28;99652.81;;;-0.82;72.76
22572;BME280;11452;53.368;14.658;2024-01-16T03:23:34;99651.05;;;-0.81;72.65
22572;BME280;11452;53.368;14.658;2024-01-16T03:28:40;99660.20;;;-0.80;72.70
22572;BME280;11452;53.368;14.658;2024-01-16T03:33:46;99665.11;;;-0.84;72.61
22572;BME280;11452;53.368;14.658;2024-01-16T03:38:52;99664.28;;;-0.86;72.84
22572;BME280;11452;53.368;14.658;2024-01-16T03:43:57;99666.13;;;-0.89;72.85
22572;BME280;11452;53.368;14.658;2024-01-16T03:49:03;99676.91;;;-0.84;73.10
22572;BME280;11452;53.368;14.658;2024-01-16T03:54:09;99672.27;;;-0.90;73.30
22572;BME280;11452;53.368;14.658;2024-01-16T03:59:15;99668.15;;;-0.99;73.25
22572;BME280;11452;53.368;14.658;2024-01-16T04:04:21;99664.74;;;-1.19;73.32
22572;BME280;11452;53.368;14.658;2024-01-16T04:09:28;99669.14;;;-1.37;73.59
22572;BME280;11452;53.368;14.658;2024-01-16T04:14:35;99673.73;;;-1.47;73.91
22572;BME280;11452;53.368;14.658;2024-01-16T04:19:40;99681.08;;;-1.43;73.96
22572;BME280;11452;53.368;14.658;2024-01-16T04:24:46;99686.04;;;-1.49;73.94
22572;BME280;11452;53.368;14.658;2024-01-16T04:29:52;99695.05;;;-1.80;74.00
22572;BME280;11452;53.368;14.658;2024-01-16T04:34:58;99702.52;;;-2.01;74.30
22572;BME280;11452;53.368;14.658;2024-01-16T04:40:04;99713.86;;;-2.22;74.51
22572;BME280;11452;53.368;14.658;2024-01-16T04:45:13;99717.61;;;-2.33;74.59
22572;BME280;11452;53.368;14.658;2024-01-16T04:50:19;99726.59;;;-2.24;74.76
22572;BME280;11452;53.368;14.658;2024-01-16T04:55:24;99733.93;;;-2.01;75.14
22572;BME280;11452;53.368;14.658;2024-01-16T05:00:30;99736.08;;;-1.80;75.06
22572;BME280;11452;53.368;14.658;2024-01-16T05:05:36;99737.89;;;-1.64;75.12
22572;BME280;11452;53.368;14.658;2024-01-16T05:10:41;99736.33;;;-1.52;74.86
22572;BME280;11452;53.368;14.658;2024-01-16T05:15:49;99742.23;;;-1.44;74.85
22572;BME280;11452;53.368;14.658;2024-01-16T05:20:55;99748.09;;;-1.33;75.03
22572;BME280;11452;53.368;14.658;2024-01-16T05:26:04;99752.98;;;-1.19;75.00
22572;BME280;11452;53.368;14.658;2024-01-16T05:31:10;99750.64;;;-1.12;74.79
22572;BME280;11452;53.368;14.658;2024-01-16T05:36:16;99755.54;;;-1.16;74.63
22572;BME280;11452;53.368;14.658;2024-01-16T05:41:21;99759.47;;;-1.34;74.57
22572;BME280;11452;53.368;14.658;2024-01-16T05:46:27;99775.45;;;-1.65;74.47
22572;BME280;11452;53.368;14.658;2024-01-16T05:51:33;99781.52;;;-1.63;74.78
22572;BME280;11452;53.368;14.658;2024-01-16T05:56:39;99794.84;;;-1.53;74.73
22572;BME280;11452;53.368;14.658;2024-01-16T06:01:45;99798.04;;;-1.41;74.74
22572;BME280;11452;53.368;14.658;2024-01-16T06:06:50;99792.84;;;-1.24;74.82
22572;BME280;11452;53.368;14.658;2024-01-16T06:11:56;99799.33;;;-1.21;74.74
22572;BME280;11452;53.368;14.658;2024-01-16T06:17:02;99801.53;;;-1.22;74.64
22572;BME280;11452;53.368;14.658;2024-01-16T06:22:10;99805.38;;;-1.18;74.66
22572;BME280;11452;53.368;14.658;2024-01-16T06:27:16;99813.71;;;-1.20;74.57
22572;BME280;11452;53.368;14.658;2024-01-16T06:32:23;99827.16;;;-1.16;74.59
22572;BME280;11452;53.368;14.658;2024-01-16T06:37:29;99826.06;;;-1.07;74.57
22572;BME280;11452;53.368;14.658;2024-01-16T06:42:35;99833.38;;;-1.02;74.43
22572;BME280;11452;53.368;14.658;2024-01-16T06:47:41;99833.73;;;-0.98;74.35
22572;BME280;11452;53.368;14.658;2024-01-16T06:52:47;99846.56;;;-1.05;74.34
22572;BME280;11452;53.368;14.658;2024-01-16T06:57:53;99846.09;;;-1.22;74.21
22572;BME280;11452;53.368;14.658;2024-01-16T07:02:58;99866.08;;;-1.57;74.25
22572;BME280;11452;53.368;14.658;2024-01-16T07:08:04;99864.89;;;-1.63;74.51
22572;BME280;11452;53.368;14.658;2024-01-16T07:13:10;99870.72;;;-1.49;74.70
22572;BME280;11452;53.368;14.658;2024-01-16T07:18:17;99874.02;;;-1.41;74.62
22572;BME280;11452;53.368;14.658;2024-01-16T07:23:23;99875.74;;;-1.40;74.58
22572;BME280;11452;53.368;14.658;2024-01-16T07:28:29;99880.03;;;-1.35;74.50
22572;BME280;11452;53.368;14.658;2024-01-16T07:33:35;99894.53;;;-1.40;74.54
22572;BME280;11452;53.368;14.658;2024-01-16T07:38:41;99902.95;;;-1.47;74.43
22572;BME280;11452;53.368;14.658;2024-01-16T07:43:47;99906.26;;;-1.58;74.63
22572;BME280;11452;53.368;14.658;2024-01-16T07:48:53;99918.55;;;-1.61;74.57
22572;BME280;11452;53.368;14.658;2024-01-16T07:54:07;99931.98;;;-1.56;74.74
22572;BME280;11452;53.368;14.658;2024-01-16T07:59:13;99932.34;;;-1.31;74.98
22572;BME280;11452;53.368;14.658;2024-01-16T08:04:19;99939.23;;;-1.08;74.85
22572;BME280;11452;53.368;14.658;2024-01-16T08:09:25;99945.64;;;-1.00;74.65
22572;BME280;11452;53.368;14.658;2024-01-16T08:14:31;99942.67;;;-1.25;74.56
22572;BME280;11452;53.368;14.658;2024-01-16T08:19:36;99948.95;;;-1.53;74.77
22572;BME280;11452;53.368;14.658;2024-01-16T08:24:43;99944.91;;;-1.69;74.83
22572;BME280;11452;53.368;14.658;2024-01-16T08:29:48;99959.00;;;-1.76;74.98
22572;BME280;11452;53.368;14.658;2024-01-16T08:34:54;99955.20;;;-1.84;75.07
22572;BME280;11452;53.368;14.658;2024-01-16T08:40:00;99947.02;;;-1.88;75.12
22572;BME280;11452;53.368;14.658;2024-01-16T08:45:08;99945.76;;;-1.91;75.18
22572;BME280;11452;53.368;14.658;2024-01-16T08:50:14;99949.69;;;-1.91;75.19
22572;BME280;11452;53.368;14.658;2024-01-16T08:55:21;99955.81;;;-1.92;75.25
22572;BME280;11452;53.368;14.658;2024-01-16T09:00:27;99966.23;;;-1.89;75.24
22572;BME280;11452;53.368;14.658;2024-01-16T09:05:33;99968.45;;;-1.91;75.27
22572;BME280;11452;53.368;14.658;2024-01-16T09:10:41;99982.64;;;-1.57;75.62
22572;BME280;11452;53.368;14.658;2024-01-16T09:15:47;99986.45;;;-0.69;75.41
22572;BME280;11452;53.368;14.658;2024-01-16T09:20:53;99990.69;;;-0.09;74.67
22572;BME280;11452;53.368;14.658;2024-01-16T09:26:00;99994.77;;;0.37;74.29
22572;BME280;11452;53.368;14.658;2024-01-16T09:31:07;99995.97;;;0.73;73.45
22572;BME280;11452;53.368;14.658;2024-01-16T09:36:13;99994.08;;;1.07;72.91
22572;BME280;11452;53.368;14.658;2024-01-16T09:41:18;100000.64;;;1.50;72.75
22572;BME280;11452;53.368;14.658;2024-01-16T09:46:25;99989.89;;;1.70;71.46
22572;BME280;11452;53.368;14.658;2024-01-16T09:51:31;99998.88;;;1.78;70.95
22572;BME280;11452;53.368;14.658;2024-01-16T09:56:42;99994.47;;;1.92;70.73
22572;BME280;11452;53.368;14.658;2024-01-16T10:01:48;99998.06;;;2.16;70.28
22572;BME280;11452;53.368;14.658;2024-01-16T10:06:55;99985.77;;;2.28;69.49
22572;BME280;11452;53.368;14.658;2024-01-16T10:12:02;99991.72;;;2.08;68.41
22572;BME280;11452;53.368;14.658;2024-01-16T10:17:08;99998.08;;;2.02;68.68
22572;BME280;11452;53.368;14.658;2024-01-16T10:22:23;100004.96;;;2.20;67.71
22572;BME280;11452;53.368;14.658;2024-01-16T10:27:30;100007.79;;;2.52;67.57
22572;BME280;11452;53.368;14.658;2024-01-16T10:32:38;100012.45;;;2.57;66.18
22572;BME280;11452;53.368;14.658;2024-01-16T10:37:49;100014.14;;;2.71;66.23
22572;BME280;11452;53.368;14.658;2024-01-16T10:43:04;100017.83;;;2.90;65.73
22572;BME280;11452;53.368;14.658;2024-01-16T10:48:09;100022.54;;;3.05;65.41
22572;BME280;11452;53.368;14.658;2024-01-16T10:53:18;100025.02;;;3.10;64.70
22572;BME280;11452;53.368;14.658;2024-01-16T10:58:25;100017.39;;;3.14;64.54
22572;BME280;11452;53.368;14.658;2024-01-16T11:03:55;100016.84;;;3.16;63.74
22572;BME280;11452;53.368;14.658;2024-01-16T11:08:47;100017.44;;;3.12;63.40
22572;BME280;11452;53.368;14.658;2024-01-16T11:13:55;100017.30;;;3.16;63.43
22572;BME280;11452;53.368;14.658;2024-01-16T11:19:03;100026.83;;;3.20;63.17
22572;BME280;11452;53.368;14.658;2024-01-16T11:24:12;100027.47;;;3.26;63.04
22572;BME280;11452;53.368;14.658;2024-01-16T11:50:39;100021.17;;;3.64;62.58
22572;BME280;11452;53.368;14.658;2024-01-16T11:56:08;100021.17;;;3.64;62.58
22572;BME280;11452;53.368;14.658;2024-01-16T12:01:10;100013.19;;;3.32;61.39
22572;BME280;11452;53.368;14.658;2024-01-16T12:06:17;100007.73;;;3.25;61.63
22572;BME280;11452;53.368;14.658;2024-01-16T12:11:23;100007.73;;;3.25;61.63
22572;BME280;11452;53.368;14.658;2024-01-16T12:16:30;100012.61;;;3.24;61.75
22572;BME280;11452;53.368;14.658;2024-01-16T12:21:42;100012.27;;;3.09;61.64
22572;BME280;11452;53.368;14.658;2024-01-16T12:26:48;100015.94;;;3.05;61.80
22572;BME280;11452;53.368;14.658;2024-01-16T12:32:11;100005.09;;;2.78;61.60
22572;BME280;11452;53.368;14.658;2024-01-16T12:37:19;100000.84;;;2.74;61.92
22572;BME280;11452;53.368;14.658;2024-01-16T12:42:25;99993.44;;;2.84;62.14
22572;BME280;11452;53.368;14.658;2024-01-16T12:47:31;99994.70;;;2.85;62.11
22572;BME280;11452;53.368;14.658;2024-01-16T12:52:36;100000.37;;;2.86;62.15
22572;BME280;11452;53.368;14.658;2024-01-16T12:57:42;99990.82;;;2.95;62.34
22572;BME280;11452;53.368;14.658;2024-01-16T13:02:54;99984.21;;;3.07;62.22
22572;BME280;11452;53.368;14.658;2024-01-16T13:08:03;99987.48;;;3.13;62.11
22572;BME280;11452;53.368;14.658;2024-01-16T13:13:17;99983.86;;;3.04;61.79
22572;BME280;11452;53.368;14.658;2024-01-16T13:18:25;99980.41;;;2.79;61.77
22572;BME280;11452;53.368;14.658;2024-01-16T13:23:31;99974.16;;;2.82;62.31
22572;BME280;11452;53.368;14.658;2024-01-16T13:28:36;99973.41;;;3.01;62.22
22572;BME280;11452;53.368;14.658;2024-01-16T13:33:44;99975.48;;;2.82;62.23
22572;BME280;11452;53.368;14.658;2024-01-16T13:38:50;99970.52;;;2.61;62.77
22572;BME280;11452;53.368;14.658;2024-01-16T13:43:56;99972.95;;;2.42;63.24
22572;BME280;11452;53.368;14.658;2024-01-16T13:49:02;99957.69;;;2.27;63.84
22572;BME280;11452;53.368;14.658;2024-01-16T13:54:08;99958.22;;;2.12;64.32
22572;BME280;11452;53.368;14.658;2024-01-16T13:59:13;99960.81;;;2.13;64.79
22572;BME280;11452;53.368;14.658;2024-01-16T14:04:19;99959.80;;;2.17;65.45
22572;BME280;11452;53.368;14.658;2024-01-16T14:09:25;99964.47;;;1.69;66.72
22572;BME280;11452;53.368;14.658;2024-01-16T14:14:31;99959.61;;;1.57;68.30
22572;BME280;11452;53.368;14.658;2024-01-16T14:19:37;99961.15;;;1.36;69.57
22572;BME280;11452;53.368;14.658;2024-01-16T14:24:43;99963.42;;;1.06;70.83
22572;BME280;11452;53.368;14.658;2024-01-16T14:29:50;99960.72;;;0.93;71.83
22572;BME280;11452;53.368;14.658;2024-01-16T14:34:56;99958.21;;;0.90;72.26
22572;BME280;11452;53.368;14.658;2024-01-16T14:40:03;99953.13;;;0.84;73.16
22572;BME280;11452;53.368;14.658;2024-01-16T14:45:11;99956.24;;;0.82;74.18
22572;BME280;11452;53.368;14.658;2024-01-16T14:50:17;99956.73;;;0.80;74.98
22572;BME280;11452;53.368;14.658;2024-01-16T14:55:23;99958.38;;;0.69;75.79
22572;BME280;11452;53.368;14.658;2024-01-16T15:00:31;99951.73;;;0.56;77.02
22572;BME280;11452;53.368;14.658;2024-01-16T15:05:37;99953.27;;;0.48;77.95
22572;BME280;11452;53.368;14.658;2024-01-16T15:10:43;99943.69;;;0.31;78.86
22572;BME280;11452;53.368;14.658;2024-01-16T15:15:49;99944.11;;;0.16;79.85
22572;BME280;11452;53.368;14.658;2024-01-16T15:20:56;99943.51;;;0.05;80.70
22572;BME280;11452;53.368;14.658;2024-01-16T15:26:03;99939.72;;;0.00;81.47
22572;BME280;11452;53.368;14.658;2024-01-16T15:31:09;99952.20;;;-0.10;81.75
22572;BME280;11452;53.368;14.658;2024-01-16T15:36:17;99938.70;;;-0.12;82.69
22572;BME280;11452;53.368;14.658;2024-01-16T15:41:22;99946.23;;;-0.16;83.55
22572;BME280;11452;53.368;14.658;2024-01-16T15:46:28;99947.44;;;-0.12;84.01
22572;BME280;11452;53.368;14.658;2024-01-16T15:51:36;99955.69;;;-0.09;84.72
22572;BME280;11452;53.368;14.658;2024-01-16T15:56:42;99970.48;;;-0.05;84.64
22572;BME280;11452;53.368;14.658;2024-01-16T16:01:48;99967.77;;;-0.02;84.72
22572;BME280;11452;53.368;14.658;2024-01-16T16:06:55;99968.53;;;0.02;85.24
22572;BME280;11452;53.368;14.658;2024-01-16T16:12:02;99964.52;;;0.05;85.43
22572;BME280;11452;53.368;14.658;2024-01-16T16:17:08;99971.52;;;-0.12;85.71
22572;BME280;11452;53.368;14.658;2024-01-16T16:22:14;99961.92;;;-0.13;86.64
22572;BME280;11452;53.368;14.658;2024-01-16T16:27:27;99958.95;;;-0.17;86.80
22572;BME280;11452;53.368;14.658;2024-01-16T16:32:33;99964.27;;;-0.19;87.07
22572;BME280;11452;53.368;14.658;2024-01-16T16:37:40;99964.30;;;-0.20;87.55
22572;BME280;11452;53.368;14.658;2024-01-16T16:42:48;99961.13;;;-0.17;87.41
22572;BME280;11452;53.368;14.658;2024-01-16T16:47:54;99961.27;;;-0.21;87.74
22572;BME280;11452;53.368;14.658;2024-01-16T16:53:00;99954.59;;;-0.18;87.92
22572;BME280;11452;53.368;14.658;2024-01-16T16:58:05;99950.77;;;-0.21;88.24
22572;BME280;11452;53.368;14.658;2024-01-16T17:03:13;99953.08;;;-0.27;88.84
22572;BME280;11452;53.368;14.658;2024-01-16T17:08:19;99948.73;;;-0.28;89.04
22572;BME280;11452;53.368;14.658;2024-01-16T17:13:26;99945.70;;;-0.29;89.29
22572;BME280;11452;53.368;14.658;2024-01-16T17:18:34;99949.11;;;-0.25;89.57
22572;BME280;11452;53.368;14.658;2024-01-16T17:23:40;99948.37;;;-0.14;90.03
22572;BME280;11452;53.368;14.658;2024-01-16T17:28:47;99952.17;;;-0.08;90.27
22572;BME280;11452;53.368;14.658;2024-01-16T17:33:53;99957.69;;;-0.01;90.58
22572;BME280;11452;53.368;14.658;2024-01-16T17:39:00;99955.25;;;0.08;90.59
22572;BME280;11452;53.368;14.658;2024-01-16T17:44:06;99953.27;;;0.17;90.79
22572;BME280;11452;53.368;14.658;2024-01-16T17:49:14;99954.98;;;0.18;90.87
22572;BME280;11452;53.368;14.658;2024-01-16T17:54:20;99958.92;;;0.18;90.92
22572;BME280;11452;53.368;14.658;2024-01-16T17:59:26;99962.27;;;0.23;90.99
22572;BME280;11452;53.368;14.658;2024-01-16T18:04:34;99962.94;;;0.31;91.03
22572;BME280;11452;53.368;14.658;2024-01-16T18:09:39;99962.30;;;0.38;91.22
22572;BME280;11452;53.368;14.658;2024-01-16T18:14:48;99966.16;;;0.41;91.30
22572;BME280;11452;53.368;14.658;2024-01-16T18:19:54;99974.75;;;0.48;91.71
22572;BME280;11452;53.368;14.658;2024-01-16T18:25:00;99980.79;;;0.51;91.67
22572;BME280;11452;53.368;14.658;2024-01-16T18:30:08;99987.21;;;0.56;91.69
22572;BME280;11452;53.368;14.658;2024-01-16T18:35:16;99975.61;;;0.48;91.71
22572;BME280;11452;53.368;14.658;2024-01-16T18:40:23;99979.45;;;0.37;91.82
22572;BME280;11452;53.368;14.658;2024-01-16T18:45:30;99975.51;;;0.37;92.11
22572;BME280;11452;53.368;14.658;2024-01-16T18:50:36;99968.94;;;0.37;92.33
22572;BME280;11452;53.368;14.658;2024-01-16T18:55:42;99972.36;;;0.39;92.49
22572;BME280;11452;53.368;14.658;2024-01-16T19:00:47;99972.57;;;0.47;92.74
22572;BME280;11452;53.368;14.658;2024-01-16T19:05:55;99975.98;;;0.51;92.99
22572;BME280;11452;53.368;14.658;2024-01-16T19:11:01;99977.27;;;0.52;93.10
22572;BME280;11452;53.368;14.658;2024-01-16T19:16:07;99978.49;;;0.55;93.17
22572;BME280;11452;53.368;14.658;2024-01-16T19:21:12;99980.71;;;0.54;93.28
22572;BME280;11452;53.368;14.658;2024-01-16T19:26:18;99979.40;;;0.54;93.65
22572;BME280;11452;53.368;14.658;2024-01-16T19:31:26;99986.11;;;0.64;93.65
22572;BME280;11452;53.368;14.658;2024-01-16T19:36:33;99985.91;;;0.72;93.94
22572;BME280;11452;53.368;14.658;2024-01-16T19:41:39;99980.48;;;0.77;93.97
22572;BME280;11452;53.368;14.658;2024-01-16T19:46:45;99973.66;;;0.71;94.16
22572;BME280;11452;53.368;14.658;2024-01-16T19:51:52;99976.00;;;0.65;94.32
22572;BME280;11452;53.368;14.658;2024-01-16T19:56:58;99977.71;;;0.52;94.48
22572;BME280;11452;53.368;14.658;2024-01-16T20:02:05;99977.77;;;0.34;94.56
22572;BME280;11452;53.368;14.658;2024-01-16T20:07:14;99979.64;;;0.13;94.55
22572;BME280;11452;53.368;14.658;2024-01-16T20:12:21;99982.36;;;-0.08;94.54
22572;BME280;11452;53.368;14.658;2024-01-16T20:17:28;99986.27;;;-0.24;94.72
22572;BME280;11452;53.368;14.658;2024-01-16T20:22:41;99990.52;;;-0.19;94.96
22572;BME280;11452;53.368;14.658;2024-01-16T20:27:47;99992.38;;;-0.06;95.15
22572;BME280;11452;53.368;14.658;2024-01-16T20:32:53;99998.28;;;0.02;95.28
22572;BME280;11452;53.368;14.658;2024-01-16T20:38:00;99992.84;;;0.10;95.45
22572;BME280;11452;53.368;14.658;2024-01-16T20:43:06;99986.51;;;0.18;95.50
22572;BME280;11452;53.368;14.658;2024-01-16T20:48:11;99979.75;;;0.24;95.48
22572;BME280;11452;53.368;14.658;2024-01-16T20:53:17;99978.33;;;0.29;95.43
22572;BME280;11452;53.368;14.658;2024-01-16T20:58:25;99975.63;;;0.32;95.45
22572;BME280;11452;53.368;14.658;2024-01-16T21:03:31;99979.04;;;0.36;95.55
22572;BME280;11452;53.368;14.658;2024-01-16T21:08:37;99984.52;;;0.43;95.65
22572;BME280;11452;53.368;14.658;2024-01-16T21:13:43;99983.41;;;0.51;95.71
22572;BME280;11452;53.368;14.658;2024-01-16T21:18:50;99979.20;;;0.60;95.85
22572;BME280;11452;53.368;14.658;2024-01-16T21:23:55;99974.64;;;0.67;95.90
22572;BME280;11452;53.368;14.658;2024-01-16T21:29:02;99974.03;;;0.74;95.97
22572;BME280;11452;53.368;14.658;2024-01-16T21:34:08;99979.13;;;0.78;96.06
22572;BME280;11452;53.368;14.658;2024-01-16T21:39:14;99972.31;;;0.87;96.24
22572;BME280;11452;53.368;14.658;2024-01-16T21:44:21;99978.34;;;0.91;96.37
22572;BME280;11452;53.368;14.658;2024-01-16T21:49:29;99980.41;;;0.94;96.46
22572;BME280;11452;53.368;14.658;2024-01-16T21:54:35;99968.44;;;0.99;96.63
22572;BME280;11452;53.368;14.658;2024-01-16T21:59:41;99965.10;;;1.09;96.70
22572;BME280;11452;53.368;14.658;2024-01-16T22:04:46;99962.42;;;1.10;96.77
22572;BME280;11452;53.368;14.658;2024-01-16T22:09:52;99953.55;;;1.13;96.91
22572;BME280;11452;53.368;14.658;2024-01-16T22:14:58;99953.22;;;1.10;96.90
22572;BME280;11452;53.368;14.658;2024-01-16T22:20:05;99951.99;;;1.07;97.00
22572;BME280;11452;53.368;14.658;2024-01-16T22:25:11;99953.84;;;1.03;97.14
22572;BME280;11452;53.368;14.658;2024-01-16T22:30:17;99951.99;;;1.07;97.39
22572;BME280;11452;53.368;14.658;2024-01-16T22:35:23;99947.87;;;1.12;97.55
22572;BME280;11452;53.368;14.658;2024-01-16T22:40:29;99946.88;;;1.16;97.58
22572;BME280;11452;53.368;14.658;2024-01-16T22:45:39;99949.27;;;1.10;97.57
22572;BME280;11452;53.368;14.658;2024-01-16T22:50:46;99939.66;;;1.09;97.70
22572;BME280;11452;53.368;14.658;2024-01-16T22:55:54;99940.97;;;1.09;97.83
22572;BME280;11452;53.368;14.658;2024-01-16T23:01:00;99941.08;;;1.19;98.03
22572;BME280;11452;53.368;14.658;2024-01-16T23:06:06;99937.09;;;1.21;97.95
22572;BME280;11452;53.368;14.658;2024-01-16T23:11:12;99928.38;;;1.19;98.01
22572;BME280;11452;53.368;14.658;2024-01-16T23:16:18;99913.31;;;1.24;98.06
22572;BME280;11452;53.368;14.658;2024-01-16T23:21:24;99908.91;;;1.24;98.04
22572;BME280;11452;53.368;14.658;2024-01-16T23:26:30;99902.87;;;1.21;98.07
22572;BME280;11452;53.368;14.658;2024-01-16T23:31:36;99898.44;;;1.23;98.08
22572;BME280;11452;53.368;14.658;2024-01-16T23:36:42;99898.38;;;1.24;98.08
22572;BME280;11452;53.368;14.658;2024-01-16T23:41:48;99890.90;;;1.25;97.94
22572;BME280;11452;53.368;14.658;2024-01-16T23:46:54;99893.17;;;1.23;97.91
22572;BME280;11452;53.368;14.658;2024-01-16T23:52:00;99884.73;;;1.26;97.85
22572;BME280;11452;53.368;14.658;2024-01-16T23:57:08;99870.25;;;1.26;97.98
